sensor_id;sensor_type;location;lat;lon;timestamp;P1;durP1;ratioP1;P2;durP2;ratioP2
7575;SDS011;3829;50.798;4.358;2024-02-26T00:01:48;2.53;;;1.20;;
7575;SDS011;3829;50.798;4.358;2024-02-26T00:04:14;5.40;;;1.93;;
7575;SDS011;3829;50.798;4.358;2024-02-26T00:06:40;1.50;;;1.40;;
7575;SDS011;3829;50.798;4.358;2024-02-26T00:09:07;2.53;;;1.73;;
7575;SDS011;3829;50.798;4.358;2024-02-26T00:11:33;1.77;;;1.43;;
7575;SDS011;3829;50.798;4.358;2024-02-26T00:14:00;2.07;;;1.70;;
7575;SDS011;3829;50.798;4.358;2024-02-26T00:16:26;6.00;;;1.90;;
7575;SDS011;3829;50.798;4.358;2024-02-26T00:18:51;2.27;;;1.50;;
7575;SDS011;3829;50.798;4.358;2024-02-26T00:21:17;1.83;;;1.40;;
7575;SDS011;3829;50.798;4.358;2024-02-26T00:23:43;3.93;;;1.50;;
7575;SDS011;3829;50.798;4.358;2024-02-26T00:26:08;2.83;;;1.47;;
7575;SDS011;3829;50.798;4.358;2024-02-26T00:28:35;1.93;;;1.80;;
7575;SDS011;3829;50.798;4.358;2024-02-26T00:31:01;2.77;;;1.80;;
7575;SDS011;3829;50.798;4.358;2024-02-26T00:33:27;2.40;;;1.83;;
7575;SDS011;3829;50.798;4.358;2024-02-26T00:35:53;1.83;;;1.40;;
7575;SDS011;3829;50.798;4.358;2024-02-26T00:38:19;7.50;;;1.90;;
7575;SDS011;3829;50.798;4.358;2024-02-26T00:40:45;1.70;;;1.50;;
7575;SDS011;3829;50.798;4.358;2024-02-26T00:43:11;3.90;;;1.87;;
7575;SDS011;3829;50.798;4.358;2024-02-26T00:45:36;1.40;;;1.27;;
7575;SDS011;3829;50.798;4.358;2024-02-26T00:48:02;2.20;;;1.63;;
7575;SDS011;3829;50.798;4.358;2024-02-26T00:50:31;1.03;;;1.03;;
7575;SDS011;3829;50.798;4.358;2024-02-26T00:52:57;1.50;;;1.40;;
7575;SDS011;3829;50.798;4.358;2024-02-26T00:55:23;1.43;;;1.33;;
7575;SDS011;3829;50.798;4.358;2024-02-26T00:57:48;2.40;;;1.83;;
7575;SDS011;3829;50.798;4.358;2024-02-26T01:00:14;1.27;;;1.17;;
7575;SDS011;3829;50.798;4.358;2024-02-26T01:02:40;2.30;;;1.73;;
7575;SDS011;3829;50.798;4.358;2024-02-26T01:05:07;3.03;;;1.40;;
7575;SDS011;3829;50.798;4.358;2024-02-26T01:07:34;2.50;;;1.77;;
7575;SDS011;3829;50.798;4.358;2024-02-26T01:10:02;2.17;;;1.40;;
7575;SDS011;3829;50.798;4.358;2024-02-26T01:12:28;1.77;;;1.37;;
7575;SDS011;3829;50.798;4.358;2024-02-26T01:14:54;2.33;;;1.60;;
7575;SDS011;3829;50.798;4.358;2024-02-26T01:17:19;1.30;;;1.20;;
7575;SDS011;3829;50.798;4.358;2024-02-26T01:19:45;3.60;;;1.20;;
7575;SDS011;3829;50.798;4.358;2024-02-26T01:22:10;1.40;;;1.30;;
7575;SDS011;3829;50.798;4.358;2024-02-26T01:24:36;4.63;;;1.77;;
7575;SDS011;3829;50.798;4.358;2024-02-26T01:27:02;2.43;;;1.20;;
7575;SDS011;3829;50.798;4.358;2024-02-26T01:29:27;2.27;;;1.40;;
7575;SDS011;3829;50.798;4.358;2024-02-26T01:31:53;2.07;;;1.40;;
7575;SDS011;3829;50.798;4.358;2024-02-26T01:34:20;1.70;;;1.60;;
7575;SDS011;3829;50.798;4.358;2024-02-26T01:36:45;2.47;;;1.53;;
7575;SDS011;3829;50.798;4.358;2024-02-26T01:39:11;1.53;;;1.37;;
7575;SDS011;3829;50.798;4.358;2024-02-26T01:41:37;1.77;;;1.40;;
7575;SDS011;3829;50.798;4.358;2024-02-26T01:44:05;1.53;;;1.40;;
7575;SDS011;3829;50.798;4.358;2024-02-26T01:46:31;3.33;;;1.83;;
7575;SDS011;3829;50.798;4.358;2024-02-26T01:48:59;4.47;;;1.60;;
7575;SDS011;3829;50.798;4.358;2024-02-26T01:51:27;4.87;;;1.47;;
7575;SDS011;3829;50.798;4.358;2024-02-26T01:53:53;1.43;;;1.30;;
7575;SDS011;3829;50.798;4.358;2024-02-26T01:56:19;3.67;;;1.40;;
7575;SDS011;3829;50.798;4.358;2024-02-26T01:58:46;1.90;;;1.40;;
7575;SDS011;3829;50.798;4.358;2024-02-26T02:01:13;2.77;;;1.20;;
7575;SDS011;3829;50.798;4.358;2024-02-26T02:03:44;1.10;;;1.00;;
7575;SDS011;3829;50.798;4.358;2024-02-26T02:06:11;2.27;;;1.30;;
7575;SDS011;3829;50.798;4.358;2024-02-26T02:08:38;1.77;;;1.20;;
7575;SDS011;3829;50.798;4.358;2024-02-26T02:11:04;2.20;;;1.10;;
7575;SDS011;3829;50.798;4.358;2024-02-26T02:13:30;2.90;;;1.60;;
7575;SDS011;3829;50.798;4.358;2024-02-26T02:15:56;1.40;;;1.30;;
7575;SDS011;3829;50.798;4.358;2024-02-26T02:18:22;2.70;;;1.00;;
7575;SDS011;3829;50.798;4.358;2024-02-26T02:20:47;4.10;;;1.40;;
7575;SDS011;3829;50.798;4.358;2024-02-26T02:23:13;3.17;;;1.20;;
7575;SDS011;3829;50.798;4.358;2024-02-26T02:25:39;1.70;;;1.20;;
7575;SDS011;3829;50.798;4.358;2024-02-26T02:28:05;2.87;;;1.37;;
7575;SDS011;3829;50.798;4.358;2024-02-26T02:30:31;1.20;;;1.10;;
7575;SDS011;3829;50.798;4.358;2024-02-26T02:32:58;1.30;;;1.20;;
7575;SDS011;3829;50.798;4.358;2024-02-26T02:35:24;2.57;;;1.60;;
7575;SDS011;3829;50.798;4.358;2024-02-26T02:37:53;1.53;;;1.10;;
7575;SDS011;3829;50.798;4.358;2024-02-26T02:40:20;1.37;;;1.27;;
7575;SDS011;3829;50.798;4.358;2024-02-26T02:42:45;1.20;;;1.10;;
7575;SDS011;3829;50.798;4.358;2024-02-26T02:45:11;3.60;;;1.53;;
7575;SDS011;3829;50.798;4.358;2024-02-26T02:47:36;1.40;;;1.20;;
7575;SDS011;3829;50.798;4.358;2024-02-26T02:50:03;3.93;;;1.30;;
7575;SDS011;3829;50.798;4.358;2024-02-26T02:52:28;1.90;;;1.20;;
7575;SDS011;3829;50.798;4.358;2024-02-26T02:54:54;1.50;;;1.40;;
7575;SDS011;3829;50.798;4.358;2024-02-26T02:57:20;1.80;;;1.30;;
7575;SDS011;3829;50.798;4.358;2024-02-26T02:59:46;2.53;;;1.30;;
7575;SDS011;3829;50.798;4.358;2024-02-26T03:02:13;5.97;;;1.70;;
7575;SDS011;3829;50.798;4.358;2024-02-26T03:04:38;1.30;;;1.20;;
7575;SDS011;3829;50.798;4.358;2024-02-26T03:07:04;1.90;;;1.43;;
7575;SDS011;3829;50.798;4.358;2024-02-26T03:09:30;1.50;;;1.30;;
7575;SDS011;3829;50.798;4.358;2024-02-26T03:11:55;2.03;;;1.60;;
7575;SDS011;3829;50.798;4.358;2024-02-26T03:14:21;1.20;;;1.00;;
7575;SDS011;3829;50.798;4.358;2024-02-26T03:16:47;3.13;;;1.50;;
7575;SDS011;3829;50.798;4.358;2024-02-26T03:19:15;1.60;;;1.50;;
7575;SDS011;3829;50.798;4.358;2024-02-26T03:21:41;1.43;;;1.33;;
7575;SDS011;3829;50.798;4.358;2024-02-26T03:24:07;2.20;;;1.30;;
7575;SDS011;3829;50.798;4.358;2024-02-26T03:26:36;2.50;;;1.13;;
7575;SDS011;3829;50.798;4.358;2024-02-26T03:29:02;1.83;;;1.67;;
7575;SDS011;3829;50.798;4.358;2024-02-26T03:31:28;2.90;;;2.00;;
7575;SDS011;3829;50.798;4.358;2024-02-26T03:33:53;2.47;;;1.60;;
7575;SDS011;3829;50.798;4.358;2024-02-26T03:36:19;2.53;;;1.57;;
7575;SDS011;3829;50.798;4.358;2024-02-26T03:38:46;4.10;;;1.73;;
7575;SDS011;3829;50.798;4.358;2024-02-26T03:41:12;3.73;;;2.13;;
7575;SDS011;3829;50.798;4.358;2024-02-26T03:43:38;3.63;;;2.13;;
7575;SDS011;3829;50.798;4.358;2024-02-26T03:46:03;1.73;;;1.20;;
7575;SDS011;3829;50.798;4.358;2024-02-26T03:48:32;3.53;;;1.87;;
7575;SDS011;3829;50.798;4.358;2024-02-26T03:50:57;5.23;;;1.67;;
7575;SDS011;3829;50.798;4.358;2024-02-26T03:53:23;2.40;;;1.80;;
7575;SDS011;3829;50.798;4.358;2024-02-26T03:55:48;2.87;;;1.80;;
7575;SDS011;3829;50.798;4.358;2024-02-26T03:58:16;2.17;;;1.90;;
7575;SDS011;3829;50.798;4.358;2024-02-26T04:00:42;3.30;;;2.00;;
7575;SDS011;3829;50.798;4.358;2024-02-26T04:03:08;4.53;;;2.00;;
7575;SDS011;3829;50.798;4.358;2024-02-26T04:05:35;1.70;;;1.60;;
7575;SDS011;3829;50.798;4.358;2024-02-26T04:08:01;3.20;;;1.83;;
7575;SDS011;3829;50.798;4.358;2024-02-26T04:10:26;1.23;;;1.20;;
7575;SDS011;3829;50.798;4.358;2024-02-26T04:12:52;2.07;;;1.60;;
7575;SDS011;3829;50.798;4.358;2024-02-26T04:15:17;3.37;;;2.30;;
7575;SDS011;3829;50.798;4.358;2024-02-26T04:17:43;4.60;;;2.70;;
7575;SDS011;3829;50.798;4.358;2024-02-26T04:20:12;2.50;;;2.30;;
7575;SDS011;3829;50.798;4.358;2024-02-26T04:22:40;3.73;;;2.33;;
7575;SDS011;3829;50.798;4.358;2024-02-26T04:25:06;4.70;;;2.50;;
7575;SDS011;3829;50.798;4.358;2024-02-26T04:27:32;2.93;;;2.37;;
7575;SDS011;3829;50.798;4.358;2024-02-26T04:29:58;2.47;;;1.93;;
7575;SDS011;3829;50.798;4.358;2024-02-26T04:32:23;3.97;;;3.20;;
7575;SDS011;3829;50.798;4.358;2024-02-26T04:34:49;3.13;;;2.83;;
7575;SDS011;3829;50.798;4.358;2024-02-26T04:37:15;2.27;;;2.07;;
7575;SDS011;3829;50.798;4.358;2024-02-26T04:39:40;2.33;;;2.10;;
7575;SDS011;3829;50.798;4.358;2024-02-26T04:42:06;3.13;;;2.50;;
7575;SDS011;3829;50.798;4.358;2024-02-26T04:44:32;3.70;;;3.07;;
7575;SDS011;3829;50.798;4.358;2024-02-26T04:46:58;5.30;;;2.80;;
7575;SDS011;3829;50.798;4.358;2024-02-26T04:49:23;4.60;;;2.50;;
7575;SDS011;3829;50.798;4.358;2024-02-26T04:51:49;5.50;;;2.87;;
7575;SDS011;3829;50.798;4.358;2024-02-26T04:54:15;2.60;;;2.40;;
7575;SDS011;3829;50.798;4.358;2024-02-26T04:56:40;5.70;;;3.07;;
7575;SDS011;3829;50.798;4.358;2024-02-26T04:59:06;5.53;;;3.83;;
7575;SDS011;3829;50.798;4.358;2024-02-26T05:01:31;4.60;;;3.40;;
7575;SDS011;3829;50.798;4.358;2024-02-26T05:03:57;5.17;;;3.80;;
7575;SDS011;3829;50.798;4.358;2024-02-26T05:06:25;5.20;;;3.90;;
7575;SDS011;3829;50.798;4.358;2024-02-26T05:08:51;1.60;;;1.50;;
7575;SDS011;3829;50.798;4.358;2024-02-26T05:11:17;5.83;;;3.97;;
7575;SDS011;3829;50.798;4.358;2024-02-26T05:13:43;4.60;;;3.23;;
7575;SDS011;3829;50.798;4.358;2024-02-26T05:16:10;3.73;;;1.80;;
7575;SDS011;3829;50.798;4.358;2024-02-26T05:18:36;6.67;;;4.67;;
7575;SDS011;3829;50.798;4.358;2024-02-26T05:21:01;5.60;;;4.43;;
7575;SDS011;3829;50.798;4.358;2024-02-26T05:23:28;5.03;;;3.73;;
7575;SDS011;3829;50.798;4.358;2024-02-26T05:25:54;7.77;;;4.50;;
7575;SDS011;3829;50.798;4.358;2024-02-26T05:28:20;5.23;;;4.20;;
7575;SDS011;3829;50.798;4.358;2024-02-26T05:30:45;7.03;;;4.20;;
7575;SDS011;3829;50.798;4.358;2024-02-26T05:33:11;5.33;;;3.87;;
7575;SDS011;3829;50.798;4.358;2024-02-26T05:35:37;7.03;;;4.50;;
7575;SDS011;3829;50.798;4.358;2024-02-26T05:38:03;6.27;;;4.53;;
7575;SDS011;3829;50.798;4.358;2024-02-26T05:40:29;4.97;;;3.30;;
7575;SDS011;3829;50.798;4.358;2024-02-26T05:42:55;6.83;;;4.07;;
7575;SDS011;3829;50.798;4.358;2024-02-26T05:45:21;8.20;;;5.87;;
7575;SDS011;3829;50.798;4.358;2024-02-26T05:47:47;9.37;;;5.30;;
7575;SDS011;3829;50.798;4.358;2024-02-26T05:50:12;8.63;;;5.27;;
7575;SDS011;3829;50.798;4.358;2024-02-26T05:52:40;7.10;;;5.17;;
7575;SDS011;3829;50.798;4.358;2024-02-26T05:55:06;9.57;;;6.70;;
7575;SDS011;3829;50.798;4.358;2024-02-26T05:57:33;8.73;;;5.93;;
7575;SDS011;3829;50.798;4.358;2024-02-26T05:59:59;10.13;;;6.57;;
7575;SDS011;3829;50.798;4.358;2024-02-26T06:02:28;9.60;;;6.90;;
7575;SDS011;3829;50.798;4.358;2024-02-26T06:04:55;13.43;;;7.20;;
7575;SDS011;3829;50.798;4.358;2024-02-26T06:07:20;11.53;;;7.10;;
7575;SDS011;3829;50.798;4.358;2024-02-26T06:09:46;15.33;;;10.13;;
7575;SDS011;3829;50.798;4.358;2024-02-26T06:12:11;14.30;;;9.30;;
7575;SDS011;3829;50.798;4.358;2024-02-26T06:14:37;11.57;;;8.10;;
7575;SDS011;3829;50.798;4.358;2024-02-26T06:17:03;10.97;;;7.77;;
7575;SDS011;3829;50.798;4.358;2024-02-26T06:19:28;16.57;;;10.00;;
7575;SDS011;3829;50.798;4.358;2024-02-26T06:21:54;14.67;;;9.17;;
7575;SDS011;3829;50.798;4.358;2024-02-26T06:24:20;8.33;;;5.80;;
7575;SDS011;3829;50.798;4.358;2024-02-26T06:26:47;17.17;;;10.23;;
7575;SDS011;3829;50.798;4.358;2024-02-26T06:29:13;15.20;;;10.37;;
7575;SDS011;3829;50.798;4.358;2024-02-26T06:31:38;16.63;;;10.13;;
7575;SDS011;3829;50.798;4.358;2024-02-26T06:34:04;14.73;;;9.73;;
7575;SDS011;3829;50.798;4.358;2024-02-26T06:36:29;9.40;;;6.83;;
7575;SDS011;3829;50.798;4.358;2024-02-26T06:38:57;18.47;;;11.17;;
7575;SDS011;3829;50.798;4.358;2024-02-26T06:41:23;14.93;;;10.30;;
7575;SDS011;3829;50.798;4.358;2024-02-26T06:43:53;16.83;;;10.80;;
7575;SDS011;3829;50.798;4.358;2024-02-26T06:46:19;16.77;;;11.27;;
7575;SDS011;3829;50.798;4.358;2024-02-26T06:48:45;14.00;;;9.47;;
7575;SDS011;3829;50.798;4.358;2024-02-26T06:51:10;15.80;;;10.80;;
7575;SDS011;3829;50.798;4.358;2024-02-26T06:53:36;14.80;;;10.10;;
7575;SDS011;3829;50.798;4.358;2024-02-26T06:56:01;13.13;;;8.73;;
7575;SDS011;3829;50.798;4.358;2024-02-26T06:58:27;13.60;;;9.17;;
7575;SDS011;3829;50.798;4.358;2024-02-26T07:00:53;16.00;;;10.50;;
7575;SDS011;3829;50.798;4.358;2024-02-26T07:03:18;11.73;;;9.27;;
7575;SDS011;3829;50.798;4.358;2024-02-26T07:05:44;17.47;;;10.83;;
7575;SDS011;3829;50.798;4.358;2024-02-26T07:08:11;15.87;;;9.73;;
7575;SDS011;3829;50.798;4.358;2024-02-26T07:10:37;12.33;;;9.17;;
7575;SDS011;3829;50.798;4.358;2024-02-26T07:13:02;16.13;;;10.00;;
7575;SDS011;3829;50.798;4.358;2024-02-26T07:15:28;12.73;;;9.20;;
7575;SDS011;3829;50.798;4.358;2024-02-26T07:17:54;14.90;;;10.13;;
7575;SDS011;3829;50.798;4.358;2024-02-26T07:20:19;13.23;;;8.97;;
7575;SDS011;3829;50.798;4.358;2024-02-26T07:22:45;13.00;;;8.70;;
7575;SDS011;3829;50.798;4.358;2024-02-26T07:25:11;15.37;;;10.03;;
7575;SDS011;3829;50.798;4.358;2024-02-26T07:27:38;14.63;;;10.90;;
7575;SDS011;3829;50.798;4.358;2024-02-26T07:30:05;16.80;;;10.47;;
7575;SDS011;3829;50.798;4.358;2024-02-26T07:32:33;15.90;;;10.73;;
7575;SDS011;3829;50.798;4.358;2024-02-26T07:34:58;14.97;;;10.33;;
7575;SDS011;3829;50.798;4.358;2024-02-26T07:37:24;17.53;;;11.00;;
7575;SDS011;3829;50.798;4.358;2024-02-26T07:39:49;18.80;;;10.00;;
7575;SDS011;3829;50.798;4.358;2024-02-26T07:42:15;18.40;;;10.97;;
7575;SDS011;3829;50.798;4.358;2024-02-26T07:44:41;18.87;;;12.20;;
7575;SDS011;3829;50.798;4.358;2024-02-26T07:47:08;19.33;;;11.03;;
7575;SDS011;3829;50.798;4.358;2024-02-26T07:49:34;15.10;;;11.03;;
7575;SDS011;3829;50.798;4.358;2024-02-26T07:52:00;17.10;;;10.57;;
7575;SDS011;3829;50.798;4.358;2024-02-26T07:54:25;13.30;;;8.93;;
7575;SDS011;3829;50.798;4.358;2024-02-26T07:56:51;13.17;;;9.63;;
7575;SDS011;3829;50.798;4.358;2024-02-26T07:59:17;11.50;;;8.10;;
7575;SDS011;3829;50.798;4.358;2024-02-26T08:01:43;15.60;;;10.87;;
7575;SDS011;3829;50.798;4.358;2024-02-26T08:04:08;11.00;;;8.73;;
7575;SDS011;3829;50.798;4.358;2024-02-26T08:06:34;15.27;;;11.33;;
7575;SDS011;3829;50.798;4.358;2024-02-26T08:09:00;17.60;;;10.17;;
7575;SDS011;3829;50.798;4.358;2024-02-26T08:11:26;15.37;;;10.43;;
7575;SDS011;3829;50.798;4.358;2024-02-26T08:13:53;14.27;;;9.53;;
7575;SDS011;3829;50.798;4.358;2024-02-26T08:16:18;10.40;;;7.33;;
7575;SDS011;3829;50.798;4.358;2024-02-26T08:18:44;12.73;;;9.20;;
7575;SDS011;3829;50.798;4.358;2024-02-26T08:21:09;13.07;;;8.70;;
7575;SDS011;3829;50.798;4.358;2024-02-26T08:23:35;15.27;;;10.17;;
7575;SDS011;3829;50.798;4.358;2024-02-26T08:26:01;11.73;;;8.50;;
7575;SDS011;3829;50.798;4.358;2024-02-26T08:28:26;12.53;;;9.20;;
7575;SDS011;3829;50.798;4.358;2024-02-26T08:30:52;14.90;;;9.20;;
7575;SDS011;3829;50.798;4.358;2024-02-26T08:33:17;14.93;;;9.53;;
7575;SDS011;3829;50.798;4.358;2024-02-26T08:35:43;13.00;;;9.77;;
7575;SDS011;3829;50.798;4.358;2024-02-26T08:38:09;13.07;;;9.50;;
7575;SDS011;3829;50.798;4.358;2024-02-26T08:40:35;13.00;;;9.30;;
7575;SDS011;3829;50.798;4.358;2024-02-26T08:43:00;11.43;;;8.47;;
7575;SDS011;3829;50.798;4.358;2024-02-26T08:45:26;13.53;;;9.43;;
7575;SDS011;3829;50.798;4.358;2024-02-26T08:47:52;12.93;;;10.03;;
7575;SDS011;3829;50.798;4.358;2024-02-26T08:50:17;14.77;;;10.97;;
7575;SDS011;3829;50.798;4.358;2024-02-26T08:52:43;12.70;;;9.57;;
7575;SDS011;3829;50.798;4.358;2024-02-26T08:55:13;11.87;;;8.90;;
7575;SDS011;3829;50.798;4.358;2024-02-26T08:57:39;13.37;;;8.53;;
7575;SDS011;3829;50.798;4.358;2024-02-26T09:00:05;11.10;;;8.00;;
7575;SDS011;3829;50.798;4.358;2024-02-26T09:02:32;9.37;;;7.20;;
7575;SDS011;3829;50.798;4.358;2024-02-26T09:04:58;12.20;;;8.03;;
7575;SDS011;3829;50.798;4.358;2024-02-26T09:07:23;11.20;;;8.87;;
7575;SDS011;3829;50.798;4.358;2024-02-26T09:09:49;14.27;;;10.23;;
7575;SDS011;3829;50.798;4.358;2024-02-26T09:12:14;13.27;;;8.00;;
7575;SDS011;3829;50.798;4.358;2024-02-26T09:14:40;10.63;;;7.40;;
7575;SDS011;3829;50.798;4.358;2024-02-26T09:17:06;8.37;;;5.53;;
7575;SDS011;3829;50.798;4.358;2024-02-26T09:19:32;9.50;;;7.73;;
7575;SDS011;3829;50.798;4.358;2024-02-26T09:21:58;12.20;;;9.50;;
7575;SDS011;3829;50.798;4.358;2024-02-26T09:24:24;5.30;;;4.80;;
7575;SDS011;3829;50.798;4.358;2024-02-26T09:26:50;11.73;;;9.17;;
7575;SDS011;3829;50.798;4.358;2024-02-26T09:29:15;13.33;;;9.77;;
7575;SDS011;3829;50.798;4.358;2024-02-26T09:31:42;10.10;;;8.80;;
7575;SDS011;3829;50.798;4.358;2024-02-26T09:34:11;12.53;;;9.27;;
7575;SDS011;3829;50.798;4.358;2024-02-26T09:36:37;15.67;;;8.70;;
7575;SDS011;3829;50.798;4.358;2024-02-26T09:39:03;13.07;;;9.50;;
7575;SDS011;3829;50.798;4.358;2024-02-26T09:41:28;10.63;;;8.20;;
7575;SDS011;3829;50.798;4.358;2024-02-26T09:43:56;12.83;;;8.57;;
7575;SDS011;3829;50.798;4.358;2024-02-26T09:46:23;12.40;;;8.87;;
7575;SDS011;3829;50.798;4.358;2024-02-26T09:48:50;10.43;;;7.63;;
7575;SDS011;3829;50.798;4.358;2024-02-26T09:51:16;12.77;;;8.87;;
7575;SDS011;3829;50.798;4.358;2024-02-26T09:53:43;13.43;;;9.87;;
7575;SDS011;3829;50.798;4.358;2024-02-26T09:56:11;10.90;;;9.00;;
7575;SDS011;3829;50.798;4.358;2024-02-26T09:58:38;12.90;;;9.50;;
7575;SDS011;3829;50.798;4.358;2024-02-26T10:01:08;15.20;;;9.40;;
7575;SDS011;3829;50.798;4.358;2024-02-26T10:03:38;11.17;;;8.37;;
7575;SDS011;3829;50.798;4.358;2024-02-26T10:06:07;11.90;;;9.00;;
7575;SDS011;3829;50.798;4.358;2024-02-26T10:08:34;10.60;;;8.20;;
7575;SDS011;3829;50.798;4.358;2024-02-26T10:11:02;10.70;;;8.17;;
7575;SDS011;3829;50.798;4.358;2024-02-26T10:13:29;12.53;;;8.00;;
7575;SDS011;3829;50.798;4.358;2024-02-26T10:15:55;9.53;;;6.70;;
7575;SDS011;3829;50.798;4.358;2024-02-26T10:18:22;8.27;;;6.43;;
7575;SDS011;3829;50.798;4.358;2024-02-26T10:23:26;8.00;;;6.67;;
7575;SDS011;3829;50.798;4.358;2024-02-26T10:25:55;10.83;;;6.50;;
7575;SDS011;3829;50.798;4.358;2024-02-26T10:28:22;6.70;;;5.67;;
7575;SDS011;3829;50.798;4.358;2024-02-26T10:30:48;9.07;;;6.90;;
7575;SDS011;3829;50.798;4.358;2024-02-26T10:33:14;7.90;;;6.20;;
7575;SDS011;3829;50.798;4.358;2024-02-26T10:35:40;12.47;;;7.33;;
7575;SDS011;3829;50.798;4.358;2024-02-26T10:38:11;7.97;;;6.00;;
7575;SDS011;3829;50.798;4.358;2024-02-26T10:40:37;9.67;;;5.13;;
7575;SDS011;3829;50.798;4.358;2024-02-26T10:43:03;9.03;;;5.53;;
7575;SDS011;3829;50.798;4.358;2024-02-26T10:45:28;7.27;;;6.30;;
7575;SDS011;3829;50.798;4.358;2024-02-26T10:47:54;7.67;;;5.90;;
7575;SDS011;3829;50.798;4.358;2024-02-26T10:50:20;5.77;;;4.27;;
7575;SDS011;3829;50.798;4.358;2024-02-26T10:52:45;6.77;;;5.50;;
7575;SDS011;3829;50.798;4.358;2024-02-26T10:55:14;7.43;;;6.30;;
7575;SDS011;3829;50.798;4.358;2024-02-26T10:57:43;7.37;;;5.77;;
7575;SDS011;3829;50.798;4.358;2024-02-26T11:00:10;7.57;;;5.93;;
7575;SDS011;3829;50.798;4.358;2024-02-26T11:02:40;6.67;;;4.43;;
7575;SDS011;3829;50.798;4.358;2024-02-26T11:05:06;7.50;;;5.13;;
7575;SDS011;3829;50.798;4.358;2024-02-26T11:07:34;7.23;;;5.60;;
7575;SDS011;3829;50.798;4.358;2024-02-26T11:10:02;7.50;;;5.43;;
7575;SDS011;3829;50.798;4.358;2024-02-26T11:12:29;6.53;;;4.60;;
7575;SDS011;3829;50.798;4.358;2024-02-26T11:14:56;5.57;;;4.47;;
7575;SDS011;3829;50.798;4.358;2024-02-26T11:17:25;9.67;;;5.33;;
7575;SDS011;3829;50.798;4.358;2024-02-26T11:19:53;6.20;;;3.87;;
7575;SDS011;3829;50.798;4.358;2024-02-26T11:22:21;6.00;;;4.90;;
7575;SDS011;3829;50.798;4.358;2024-02-26T11:24:48;6.80;;;4.97;;
7575;SDS011;3829;50.798;4.358;2024-02-26T11:27:14;4.27;;;3.27;;
7575;SDS011;3829;50.798;4.358;2024-02-26T11:29:47;5.47;;;4.40;;
7575;SDS011;3829;50.798;4.358;2024-02-26T11:32:16;6.50;;;4.17;;
7575;SDS011;3829;50.798;4.358;2024-02-26T11:34:43;5.50;;;4.73;;
7575;SDS011;3829;50.798;4.358;2024-02-26T11:37:10;4.93;;;4.43;;
7575;SDS011;3829;50.798;4.358;2024-02-26T11:39:40;8.23;;;5.17;;
7575;SDS011;3829;50.798;4.358;2024-02-26T11:42:06;5.80;;;4.53;;
7575;SDS011;3829;50.798;4.358;2024-02-26T11:44:33;5.03;;;4.17;;
7575;SDS011;3829;50.798;4.358;2024-02-26T11:46:59;4.57;;;4.10;;
7575;SDS011;3829;50.798;4.358;2024-02-26T11:49:37;5.53;;;4.50;;
7575;SDS011;3829;50.798;4.358;2024-02-26T11:52:04;4.77;;;4.10;;
7575;SDS011;3829;50.798;4.358;2024-02-26T11:54:40;4.47;;;4.00;;
7575;SDS011;3829;50.798;4.358;2024-02-26T11:59:47;6.03;;;5.30;;
7575;SDS011;3829;50.798;4.358;2024-02-26T12:05:00;6.13;;;4.37;;
7575;SDS011;3829;50.798;4.358;2024-02-26T12:07:26;6.30;;;4.73;;
7575;SDS011;3829;50.798;4.358;2024-02-26T12:09:52;4.33;;;3.63;;
7575;SDS011;3829;50.798;4.358;2024-02-26T12:12:37;8.23;;;4.23;;
7575;SDS011;3829;50.798;4.358;2024-02-26T12:15:04;5.57;;;4.27;;
7575;SDS011;3829;50.798;4.358;2024-02-26T12:17:32;4.77;;;3.90;;
7575;SDS011;3829;50.798;4.358;2024-02-26T12:22:35;6.97;;;4.23;;
7575;SDS011;3829;50.798;4.358;2024-02-26T12:25:03;5.43;;;4.27;;
7575;SDS011;3829;50.798;4.358;2024-02-26T12:27:30;6.73;;;4.37;;
7575;SDS011;3829;50.798;4.358;2024-02-26T12:29:56;4.63;;;4.10;;
7575;SDS011;3829;50.798;4.358;2024-02-26T12:32:22;5.90;;;5.20;;
7575;SDS011;3829;50.798;4.358;2024-02-26T12:34:48;4.10;;;3.70;;
7575;SDS011;3829;50.798;4.358;2024-02-26T12:37:15;4.77;;;4.27;;
7575;SDS011;3829;50.798;4.358;2024-02-26T12:39:41;6.37;;;4.63;;
7575;SDS011;3829;50.798;4.358;2024-02-26T12:42:07;5.77;;;4.43;;
7575;SDS011;3829;50.798;4.358;2024-02-26T12:44:34;4.80;;;3.70;;
7575;SDS011;3829;50.798;4.358;2024-02-26T12:47:01;4.50;;;4.00;;
7575;SDS011;3829;50.798;4.358;2024-02-26T12:49:28;4.00;;;3.60;;
7575;SDS011;3829;50.798;4.358;2024-02-26T12:51:53;3.97;;;3.47;;
7575;SDS011;3829;50.798;4.358;2024-02-26T12:54:20;4.37;;;3.97;;
7575;SDS011;3829;50.798;4.358;2024-02-26T12:56:46;4.17;;;3.23;;
7575;SDS011;3829;50.798;4.358;2024-02-26T12:59:12;4.73;;;4.17;;
7575;SDS011;3829;50.798;4.358;2024-02-26T13:01:39;3.93;;;3.57;;
7575;SDS011;3829;50.798;4.358;2024-02-26T13:04:05;4.70;;;3.43;;
7575;SDS011;3829;50.798;4.358;2024-02-26T13:06:31;4.47;;;2.80;;
7575;SDS011;3829;50.798;4.358;2024-02-26T13:08:58;3.60;;;3.23;;
7575;SDS011;3829;50.798;4.358;2024-02-26T13:11:24;3.87;;;3.47;;
7575;SDS011;3829;50.798;4.358;2024-02-26T13:13:51;4.53;;;3.70;;
7575;SDS011;3829;50.798;4.358;2024-02-26T13:16:16;6.07;;;4.60;;
7575;SDS011;3829;50.798;4.358;2024-02-26T13:18:42;5.43;;;4.00;;
7575;SDS011;3829;50.798;4.358;2024-02-26T13:21:09;6.07;;;4.37;;
7575;SDS011;3829;50.798;4.358;2024-02-26T13:23:37;4.10;;;3.53;;
7575;SDS011;3829;50.798;4.358;2024-02-26T13:26:04;5.90;;;4.53;;
7575;SDS011;3829;50.798;4.358;2024-02-26T13:28:29;5.57;;;4.63;;
7575;SDS011;3829;50.798;4.358;2024-02-26T13:30:55;5.77;;;5.00;;
7575;SDS011;3829;50.798;4.358;2024-02-26T13:33:23;6.87;;;4.80;;
7575;SDS011;3829;50.798;4.358;2024-02-26T13:35:49;5.27;;;4.50;;
7575;SDS011;3829;50.798;4.358;2024-02-26T13:38:15;6.83;;;6.13;;
7575;SDS011;3829;50.798;4.358;2024-02-26T13:40:42;6.27;;;5.13;;
7575;SDS011;3829;50.798;4.358;2024-02-26T13:43:07;7.47;;;6.10;;
7575;SDS011;3829;50.798;4.358;2024-02-26T13:45:34;6.13;;;4.70;;
7575;SDS011;3829;50.798;4.358;2024-02-26T13:48:01;7.33;;;5.90;;
7575;SDS011;3829;50.798;4.358;2024-02-26T13:50:28;6.07;;;4.93;;
7575;SDS011;3829;50.798;4.358;2024-02-26T13:52:54;6.50;;;5.50;;
7575;SDS011;3829;50.798;4.358;2024-02-26T13:55:21;8.60;;;6.97;;
7575;SDS011;3829;50.798;4.358;2024-02-26T13:57:49;10.97;;;7.23;;
7575;SDS011;3829;50.798;4.358;2024-02-26T14:00:17;8.73;;;7.33;;
7575;SDS011;3829;50.798;4.358;2024-02-26T14:02:43;8.53;;;7.53;;
7575;SDS011;3829;50.798;4.358;2024-02-26T14:05:08;9.07;;;7.17;;
7575;SDS011;3829;50.798;4.358;2024-02-26T14:07:35;10.33;;;6.83;;
7575;SDS011;3829;50.798;4.358;2024-02-26T14:10:00;11.27;;;7.13;;
7575;SDS011;3829;50.798;4.358;2024-02-26T14:12:26;8.43;;;6.93;;
7575;SDS011;3829;50.798;4.358;2024-02-26T14:14:52;10.33;;;6.33;;
7575;SDS011;3829;50.798;4.358;2024-02-26T14:17:19;11.10;;;8.17;;
7575;SDS011;3829;50.798;4.358;2024-02-26T14:19:44;10.60;;;7.23;;
7575;SDS011;3829;50.798;4.358;2024-02-26T14:22:12;9.80;;;7.17;;
7575;SDS011;3829;50.798;4.358;2024-02-26T14:24:39;6.80;;;5.00;;
7575;SDS011;3829;50.798;4.358;2024-02-26T14:27:06;10.20;;;6.90;;
7575;SDS011;3829;50.798;4.358;2024-02-26T14:29:37;10.73;;;7.07;;
7575;SDS011;3829;50.798;4.358;2024-02-26T14:32:09;10.97;;;6.80;;
7575;SDS011;3829;50.798;4.358;2024-02-26T14:34:36;9.90;;;6.20;;
7575;SDS011;3829;50.798;4.358;2024-02-26T14:37:02;10.87;;;8.23;;
7575;SDS011;3829;50.798;4.358;2024-02-26T14:39:29;10.77;;;7.60;;
7575;SDS011;3829;50.798;4.358;2024-02-26T14:41:56;9.57;;;6.30;;
7575;SDS011;3829;50.798;4.358;2024-02-26T14:44:22;14.57;;;7.90;;
7575;SDS011;3829;50.798;4.358;2024-02-26T14:46:49;8.47;;;7.17;;
7575;SDS011;3829;50.798;4.358;2024-02-26T14:49:15;10.10;;;6.77;;
7575;SDS011;3829;50.798;4.358;2024-02-26T14:51:40;8.63;;;6.03;;
7575;SDS011;3829;50.798;4.358;2024-02-26T14:54:06;11.17;;;6.97;;
7575;SDS011;3829;50.798;4.358;2024-02-26T14:56:32;7.07;;;4.57;;
7575;SDS011;3829;50.798;4.358;2024-02-26T14:58:58;12.57;;;7.60;;
7575;SDS011;3829;50.798;4.358;2024-02-26T15:01:23;15.17;;;7.80;;
7575;SDS011;3829;50.798;4.358;2024-02-26T15:03:49;10.40;;;7.10;;
7575;SDS011;3829;50.798;4.358;2024-02-26T15:06:15;12.60;;;6.30;;
7575;SDS011;3829;50.798;4.358;2024-02-26T15:08:41;9.50;;;5.93;;
7575;SDS011;3829;50.798;4.358;2024-02-26T15:11:07;11.83;;;6.40;;
7575;SDS011;3829;50.798;4.358;2024-02-26T15:13:33;9.77;;;6.63;;
7575;SDS011;3829;50.798;4.358;2024-02-26T15:16:00;7.60;;;5.93;;